Aérodrome :
LOGIN :

S'inscrire | Disclaimer

   EN    FR    IT 

 










Légende :    VFR   VFR Marginal   IFR   IFR Intensif   IFR Très Intensif
Visi : 
Plafond : 
>= 8 km
>= 3000ft
5 à 8 km
1000 à 3000 ft
1500m à 5 km
500 à 1000 ft
800 à 1500m
200 à 500 ft
< 800m
< 200 ft
Symboles :   Orages  Brouillard  Fortes neiges  Fortes précipitations  Vent > 20 kt
SIGMETs :   Divers  Orages  Givrage  Turbulence  Onde Orograph.  Cendres Volcan.






- Altitude de l'aérodrome : 461 ft
- Code IATA : WIE


ETOU - Wiesbaden Army

DERNIER METAR :
  • 242356Z AUTO 15006KT 9999 SCT022 BKN026 13/13 A2951 RMK AO2 SLP993 60004 T01320132 10165 20131 57017 $

METARs EXPIRÉS :
  • 242256Z AUTO 15006KT 9999 BKN041 14/13 A2954 RMK AO2 SLP004 T01350130 402030135 $
  • 242156Z AUTO 18006KT 9999 SCT031 BKN043 14/14 A2954 RMK AO2 SLP004 T01390137 $

TAF AMD TAF ETOU
Valide du 24 à 19h jusqu'au 25 à 18h UTC


241930Z 2419/2518 17009KT 9999 BKN020 QNH2967INS
BECMG 2500/2501 18006KT 6000 BR BKN015 QNH2950INS
BECMG 2502/2503 22009KT 8000 -SHRA BKN025 QNH2950INS
BECMG 2506/2507 24009KT 9999 NSW FEW025 SCT035 QNH2952INS
BECMG 2508/2509 22012KT 9999 BKN030 QNH2948INS
BECMG 2515/2516 24009KT 9000 -DZ BKN025 QNH2949INS TX16/2512Z TN11/2506Z LAST NO AMDS AFT 2420 NEXT 2504



MET'MAP, la Météo Aéronautique d'un coup d'oeil ! - Copyright ORBIFLY Décembre 2007 - Disclaimer

ORBIFLY MET'MAP TEAM :

Programmation & Développement : Alexandra Zaïnal
Sur une idée originale de : Baudouin d'Aumeries
Assistance à la programmation : Marc-Olivier Méhu
Soutien technique & logistique : Manuel Goepfert

Contact : metmap@orbifly.com




SOURCES & CREDITS :

   NOAA